createdAt,value
2022-09-07T00:00:58.211Z,95.33
2022-09-07T00:03:45.969Z,95.54
2022-09-07T00:06:34.632Z,95.49
2022-09-07T00:09:22.350Z,95.02
2022-09-07T00:12:10.145Z,95.54
2022-09-07T00:14:57.880Z,96.10
2022-09-07T00:17:45.694Z,95.89
2022-09-07T00:20:33.594Z,95.62
2022-09-07T00:23:21.333Z,95.56
2022-09-07T00:26:19.463Z,95.87
2022-09-07T00:29:07.933Z,95.86
2022-09-07T00:31:55.737Z,97.59
2022-09-07T00:34:43.557Z,97.01
2022-09-07T00:37:31.336Z,96.84
2022-09-07T00:40:19.117Z,96.80
2022-09-07T00:43:07.462Z,96.91
2022-09-07T00:45:55.467Z,97.24
2022-09-07T00:49:08.081Z,97.08
2022-09-07T00:52:01.335Z,97.06
2022-09-07T00:54:55.050Z,96.30
2022-09-07T00:57:49.181Z,95.59
2022-09-07T01:00:37.237Z,94.47
2022-09-07T01:03:31.033Z,96.00
2022-09-07T01:06:39.655Z,97.21
2022-09-07T01:09:28.232Z,98.62
2022-09-07T01:12:16.082Z,99.95
2022-09-07T01:15:04.718Z,100.00
2022-09-07T01:18:12.980Z,100.00
2022-09-07T01:21:22.081Z,100.00
2022-09-07T01:24:55.673Z,100.00
2022-09-07T01:28:11.080Z,100.00
2022-09-07T01:31:13.818Z,100.00
2022-09-07T01:34:25.873Z,100.00
2022-09-07T01:37:24.393Z,100.00
2022-09-07T01:40:41.015Z,100.00
2022-09-07T01:43:46.246Z,100.00
2022-09-07T01:46:49.318Z,100.00
2022-09-07T01:49:51.423Z,100.00
2022-09-07T01:53:09.725Z,100.00
2022-09-07T01:56:28.053Z,100.00
2022-09-07T01:59:35.915Z,100.00
2022-09-07T02:02:35.552Z,100.00
2022-09-07T02:05:40.703Z,100.00
2022-09-07T02:08:37.853Z,100.00
2022-09-07T02:11:43.854Z,100.00
2022-09-07T02:14:37.814Z,100.00
2022-09-07T02:17:33.975Z,100.00
2022-09-07T02:20:33.517Z,100.00
2022-09-07T02:23:26.534Z,100.00
2022-09-07T02:26:22.695Z,100.00
2022-09-07T02:29:10.481Z,100.00
2022-09-07T02:31:58.442Z,100.00
2022-09-07T02:34:46.296Z,100.00
2022-09-07T02:37:35.464Z,100.00
2022-09-07T02:40:23.433Z,100.00
2022-09-07T02:43:12.017Z,100.00
2022-09-07T02:47:06.046Z,100.00
2022-09-07T02:50:30.600Z,100.00
2022-09-07T02:53:52.667Z,100.00
2022-09-07T02:57:13.592Z,100.00
2022-09-07T03:00:13.447Z,100.00
2022-09-07T03:03:39.194Z,100.00
2022-09-07T03:06:35.183Z,100.00
2022-09-07T03:09:28.628Z,100.00
2022-09-07T03:12:17.400Z,100.00
2022-09-07T03:15:05.877Z,100.00
2022-09-07T03:17:54.196Z,100.00
2022-09-07T03:20:42.002Z,100.00
2022-09-07T03:23:29.776Z,100.00
2022-09-07T03:26:25.101Z,100.00
2022-09-07T03:29:13.308Z,100.00
2022-09-07T03:32:01.090Z,100.00
2022-09-07T03:34:48.855Z,100.00
2022-09-07T03:37:38.357Z,100.00
2022-09-07T03:40:26.194Z,100.00
2022-09-07T03:43:14.020Z,100.00
2022-09-07T03:46:05.645Z,100.00
2022-09-07T03:48:53.813Z,100.00
2022-09-07T03:51:41.630Z,100.00
2022-09-07T03:54:29.506Z,100.00
2022-09-07T03:57:17.305Z,100.00
2022-09-07T04:00:06.219Z,100.00
2022-09-07T04:02:54.089Z,100.00
2022-09-07T04:05:41.901Z,100.00
2022-09-07T04:08:32.386Z,100.00
2022-09-07T04:11:20.283Z,100.00
2022-09-07T04:14:09.721Z,100.00
2022-09-07T04:16:57.576Z,100.00
2022-09-07T04:19:45.384Z,100.00
2022-09-07T04:22:33.135Z,100.00
2022-09-07T04:25:20.938Z,100.00
2022-09-07T04:28:08.856Z,100.00
2022-09-07T04:31:01.999Z,100.00
2022-09-07T04:33:51.310Z,100.00
2022-09-07T04:36:39.197Z,100.00
2022-09-07T04:39:27.024Z,100.00
2022-09-07T04:42:14.867Z,100.00
2022-09-07T04:45:03.573Z,100.00
2022-09-07T04:47:51.755Z,100.00
2022-09-07T04:50:39.485Z,100.00
2022-09-07T04:53:27.270Z,100.00
2022-09-07T04:56:17.129Z,100.00
2022-09-07T04:59:04.994Z,100.00
2022-09-07T05:01:53.003Z,100.00
2022-09-07T05:04:40.769Z,100.00
2022-09-07T05:07:28.536Z,100.00
2022-09-07T05:10:16.354Z,100.00
2022-09-07T05:13:04.209Z,100.00
2022-09-07T05:15:51.980Z,100.00
2022-09-07T05:18:39.863Z,100.00
2022-09-07T05:21:33.442Z,100.00
2022-09-07T05:24:22.996Z,100.00
2022-09-07T05:27:11.168Z,100.00
2022-09-07T05:32:52.763Z,100.00
2022-09-07T05:35:40.596Z,100.00
2022-09-07T05:38:29.092Z,100.00
2022-09-07T05:41:19.814Z,100.00
2022-09-07T05:47:15.568Z,100.00
2022-09-07T05:50:04.533Z,100.00
2022-09-07T05:52:52.787Z,100.00
2022-09-07T05:55:40.636Z,100.00
2022-09-07T05:58:29.283Z,100.00
2022-09-07T06:01:18.237Z,100.00
2022-09-07T06:04:06.366Z,100.00
2022-09-07T06:13:09.543Z,100.00
2022-09-07T06:16:05.373Z,100.00
2022-09-07T06:18:53.128Z,100.00
2022-09-07T06:21:40.942Z,100.00
2022-09-07T06:24:28.710Z,100.00
2022-09-07T06:27:16.466Z,100.00
2022-09-07T06:30:05.184Z,100.00
2022-09-07T06:32:52.938Z,100.00
2022-09-07T06:35:40.706Z,100.00
2022-09-07T06:38:38.496Z,99.02
2022-09-07T06:44:36.957Z,99.50
2022-09-07T06:47:24.732Z,94.73
2022-09-07T06:50:13.609Z,96.57
2022-09-07T06:56:15.622Z,96.15
2022-09-07T06:59:03.417Z,95.37
2022-09-07T07:01:51.222Z,96.31
2022-09-07T07:04:41.138Z,95.23
2022-09-07T07:07:29.510Z,91.59
2022-09-07T07:10:22.208Z,92.31
2022-09-07T07:13:12.242Z,91.31
2022-09-07T07:16:12.392Z,89.13
2022-09-07T07:19:00.255Z,90.16
2022-09-07T07:22:10.829Z,88.98
2022-09-07T07:24:55.729Z,87.13
2022-09-07T07:27:45.823Z,88.62
2022-09-07T07:30:38.555Z,85.91
2022-09-07T07:33:34.539Z,84.40
2022-09-07T07:36:25.667Z,84.73
2022-09-07T07:42:26.365Z,89.46
2022-09-07T07:48:25.262Z,92.21
2022-09-07T07:51:15.364Z,92.10
2022-09-07T07:54:03.111Z,88.80
2022-09-07T07:56:50.801Z,85.62
2022-09-07T07:59:39.297Z,82.42
2022-09-07T08:02:27.130Z,78.98
2022-09-07T08:05:17.005Z,77.92
2022-09-07T08:08:04.744Z,77.21
2022-09-07T08:10:53.040Z,74.49
2022-09-07T08:13:42.818Z,75.25
2022-09-07T08:16:30.784Z,72.70
2022-09-07T08:19:18.520Z,70.75
2022-09-07T08:22:07.794Z,70.09
2022-09-07T08:24:58.210Z,69.22
2022-09-07T08:27:46.038Z,69.36
2022-09-07T08:30:33.883Z,66.38
2022-09-07T08:33:23.076Z,67.57
2022-09-07T08:36:17.920Z,64.68
2022-09-07T08:39:08.241Z,61.77
2022-09-07T08:42:31.219Z,67.29
2022-09-07T08:45:32.375Z,61.49
2022-09-07T08:48:31.116Z,60.57
2022-09-07T08:51:43.433Z,60.94
2022-09-07T08:54:31.207Z,60.40
2022-09-07T08:57:30.296Z,58.99
2022-09-07T09:00:23.127Z,55.65
2022-09-07T09:03:32.335Z,53.56
2022-09-07T09:06:47.703Z,51.57
2022-09-07T09:10:30.112Z,47.38
2022-09-07T09:13:57.590Z,45.51
2022-09-07T09:16:55.499Z,44.84
2022-09-07T09:20:01.565Z,43.41
2022-09-07T09:23:13.173Z,43.50
2022-09-07T09:26:18.246Z,41.31
2022-09-07T09:29:21.845Z,40.41
2022-09-07T09:32:39.637Z,37.08
2022-09-07T09:35:44.889Z,37.61
2022-09-07T09:38:43.596Z,39.88
2022-09-07T09:41:41.275Z,39.37
2022-09-07T09:44:37.503Z,41.23
2022-09-07T09:47:32.578Z,48.98
2022-09-07T09:53:57.242Z,55.17
2022-09-07T09:56:47.316Z,58.19
2022-09-07T10:06:25.994Z,62.54
2022-09-07T10:09:22.512Z,62.01
2022-09-07T10:12:35.181Z,64.07
2022-09-07T10:15:40.587Z,62.56
2022-09-07T10:18:54.198Z,65.66
2022-09-07T10:22:00.482Z,69.62
2022-09-07T10:24:51.338Z,66.10
2022-09-07T10:27:46.771Z,76.90
2022-09-07T10:30:49.650Z,73.14
2022-09-07T10:34:27.233Z,73.46
2022-09-07T10:37:36.390Z,70.55
2022-09-07T10:40:40.630Z,72.64
2022-09-07T10:43:46.109Z,80.09
2022-09-07T10:47:00.260Z,77.58
2022-09-07T10:53:42.135Z,81.59
2022-09-07T10:56:41.824Z,71.89
2022-09-07T11:00:08.251Z,72.60
2022-09-07T11:03:47.162Z,76.90
2022-09-07T11:06:41.397Z,74.87
2022-09-07T11:09:42.793Z,81.21
2022-09-07T11:12:39.327Z,79.23
2022-09-07T11:15:33.287Z,73.92
2022-09-07T11:18:27.379Z,75.75
2022-09-07T11:21:56.206Z,71.80
2022-09-07T11:28:38.233Z,71.98
2022-09-07T11:31:45.610Z,71.18
2022-09-07T11:34:45.996Z,70.98
2022-09-07T11:37:43.638Z,69.60
2022-09-07T11:40:36.041Z,73.99
2022-09-07T11:43:41.314Z,68.52
2022-09-07T11:46:41.819Z,66.02
2022-09-07T11:49:30.745Z,66.08
2022-09-07T11:52:42.330Z,65.75
2022-09-07T11:55:38.690Z,64.82
2022-09-07T11:59:09.267Z,67.41
2022-09-07T12:02:32.335Z,63.60
2022-09-07T12:05:55.351Z,65.13
2022-09-07T12:09:14.262Z,62.08
2022-09-07T12:12:44.115Z,61.23
2022-09-07T12:15:50.119Z,62.23
2022-09-07T12:18:46.630Z,60.65
2022-09-07T12:21:44.112Z,59.51
2022-09-07T12:24:46.766Z,61.93
2022-09-07T12:27:34.341Z,65.20
2022-09-07T12:30:22.053Z,61.46
2022-09-07T12:33:37.397Z,58.65
2022-09-07T12:36:28.212Z,63.51
2022-09-07T12:39:30.317Z,57.18
2022-09-07T12:42:36.721Z,61.06
2022-09-07T12:45:30.949Z,61.12
2022-09-07T12:48:29.523Z,62.19
2022-09-07T12:55:29.310Z,55.87
2022-09-07T12:58:30.519Z,53.59
2022-09-07T13:01:33.359Z,51.83
2022-09-07T13:04:58.162Z,50.66
2022-09-07T13:08:09.666Z,50.73
2022-09-07T13:11:15.271Z,53.34
2022-09-07T13:14:16.902Z,69.36
2022-09-07T13:17:36.172Z,84.73
2022-09-07T13:20:30.280Z,93.00
2022-09-07T13:23:22.160Z,99.63
2022-09-07T13:26:12.773Z,100.00
2022-09-07T13:29:12.944Z,100.00
2022-09-07T13:32:19.958Z,100.00
2022-09-07T13:35:21.439Z,100.00
2022-09-07T13:38:13.718Z,100.00
2022-09-07T13:41:14.927Z,100.00
2022-09-07T13:44:04.296Z,100.00
2022-09-07T13:47:22.691Z,100.00
2022-09-07T13:53:53.323Z,100.00
2022-09-07T13:57:21.259Z,100.00
2022-09-07T14:00:16.785Z,100.00
2022-09-07T14:03:07.411Z,96.97
2022-09-07T14:06:25.463Z,95.16
2022-09-07T14:09:21.884Z,91.61
2022-09-07T14:12:16.577Z,91.70
2022-09-07T14:15:41.020Z,88.46
2022-09-07T14:18:32.940Z,92.88
2022-09-07T14:21:20.872Z,91.49
2022-09-07T14:24:24.655Z,84.85
2022-09-07T14:27:37.090Z,79.36
2022-09-07T14:30:36.427Z,76.06
2022-09-07T14:33:24.320Z,80.38
2022-09-07T14:36:29.812Z,76.86
2022-09-07T14:39:23.890Z,75.05
2022-09-07T14:42:22.134Z,74.90
2022-09-07T14:45:26.496Z,72.57
2022-09-07T14:48:14.766Z,72.82
2022-09-07T14:51:29.061Z,70.47
2022-09-07T14:54:38.508Z,70.53
2022-09-07T14:57:32.246Z,70.63
2022-09-07T15:00:45.165Z,69.34
2022-09-07T15:03:53.042Z,70.11
2022-09-07T15:07:02.293Z,71.93
2022-09-07T15:09:50.744Z,68.43
2022-09-07T15:12:43.009Z,70.24
2022-09-07T15:15:33.776Z,69.54
2022-09-07T15:18:59.059Z,70.03
2022-09-07T15:21:46.788Z,66.96
2022-09-07T15:24:35.606Z,68.66
2022-09-07T15:27:30.270Z,65.25
2022-09-07T15:30:20.317Z,65.33
2022-09-07T15:33:08.938Z,64.56
2022-09-07T15:35:56.700Z,64.24
2022-09-07T15:39:00.280Z,64.42
2022-09-07T15:41:48.535Z,65.48
2022-09-07T15:44:36.206Z,67.05
2022-09-07T15:47:43.524Z,67.30
2022-09-07T15:50:41.984Z,66.40
2022-09-07T15:56:37.822Z,64.12
2022-09-07T15:59:25.908Z,65.53
2022-09-07T16:05:23.276Z,64.55
2022-09-07T16:08:32.742Z,66.86
2022-09-07T16:11:24.436Z,65.10
2022-09-07T16:14:13.619Z,65.29
2022-09-07T16:20:10.085Z,64.68
2022-09-07T16:23:13.892Z,64.97
2022-09-07T16:26:04.401Z,65.74
2022-09-07T16:28:53.632Z,66.60
2022-09-07T16:32:44.055Z,68.86
2022-09-07T16:34:49.269Z,68.26
2022-09-07T16:37:37.253Z,68.99
2022-09-07T16:40:28.845Z,69.78
2022-09-07T16:43:21.626Z,69.73
2022-09-07T16:46:17.102Z,69.02
2022-09-07T16:49:07.096Z,69.56
2022-09-07T16:51:54.955Z,71.77
2022-09-07T16:54:42.717Z,70.95
2022-09-07T16:58:35.284Z,73.61
2022-09-07T17:00:40.351Z,73.09
2022-09-07T17:03:28.427Z,75.08
2022-09-07T17:06:18.218Z,77.51
2022-09-07T17:09:06.439Z,78.77
2022-09-07T17:11:54.153Z,77.63
2022-09-07T17:14:42.003Z,79.65
2022-09-07T17:17:29.818Z,81.16
2022-09-07T17:20:17.989Z,79.97
2022-09-07T17:23:05.763Z,82.11
2022-09-07T17:26:02.198Z,84.02
2022-09-07T17:28:52.113Z,84.27
2022-09-07T17:34:47.581Z,87.20
2022-09-07T17:37:35.360Z,87.28
2022-09-07T17:40:24.399Z,88.39
2022-09-07T17:46:23.677Z,90.70
2022-09-07T17:49:16.384Z,92.00
2022-09-07T17:52:04.664Z,93.64
2022-09-07T17:54:55.332Z,94.08
2022-09-07T17:57:43.123Z,95.39
2022-09-07T18:00:31.017Z,95.82
2022-09-07T18:03:18.963Z,97.99
2022-09-07T18:06:07.397Z,98.32
2022-09-07T18:08:55.154Z,98.17
2022-09-07T18:11:48.023Z,97.93
2022-09-07T18:14:36.614Z,98.64
2022-09-07T18:17:24.478Z,99.28
2022-09-07T18:20:12.347Z,98.60
2022-09-07T18:23:01.127Z,99.29
2022-09-07T18:25:58.580Z,99.31
2022-09-07T18:29:19.209Z,98.82
2022-09-07T18:32:08.293Z,98.84
2022-09-07T18:34:56.897Z,97.55
2022-09-07T18:37:44.635Z,96.63
2022-09-07T18:40:36.518Z,96.85
2022-09-07T18:43:26.174Z,98.13
2022-09-07T18:46:21.696Z,96.85
2022-09-07T18:49:09.554Z,98.31
2022-09-07T18:55:07.843Z,99.29
2022-09-07T18:57:55.876Z,98.55
2022-09-07T19:00:45.945Z,97.47
2022-09-07T19:03:34.594Z,97.71
2022-09-07T19:06:24.453Z,97.58
2022-09-07T19:09:12.630Z,95.05
2022-09-07T19:12:00.513Z,93.92
2022-09-07T19:14:50.726Z,94.52
2022-09-07T19:17:38.502Z,97.89
2022-09-07T19:20:28.686Z,98.81
2022-09-07T19:23:16.445Z,99.90
2022-09-07T19:26:06.869Z,99.84
2022-09-07T19:28:57.827Z,100.00
2022-09-07T19:32:03.997Z,99.91
2022-09-07T19:34:54.575Z,100.00
2022-09-07T19:37:42.341Z,100.00
2022-09-07T19:40:30.102Z,100.00
2022-09-07T19:43:17.817Z,100.00
2022-09-07T19:46:05.639Z,100.00
2022-09-07T19:48:53.392Z,98.40
2022-09-07T19:51:42.402Z,97.82
2022-09-07T19:54:30.634Z,98.65
2022-09-07T19:57:18.525Z,98.19
2022-09-07T20:00:07.068Z,99.09
2022-09-07T20:02:54.960Z,99.40
2022-09-07T20:05:42.705Z,100.00
2022-09-07T20:08:30.475Z,100.00
2022-09-07T20:11:22.163Z,100.00
2022-09-07T20:14:10.448Z,100.00
2022-09-07T20:16:58.294Z,100.00
2022-09-07T20:19:46.015Z,100.00
2022-09-07T20:22:33.789Z,100.00
2022-09-07T20:25:21.812Z,100.00
2022-09-07T20:28:09.599Z,100.00
2022-09-07T20:30:57.472Z,100.00
2022-09-07T20:33:46.895Z,100.00
2022-09-07T20:36:34.775Z,100.00
2022-09-07T20:39:22.813Z,100.00
2022-09-07T20:42:10.682Z,100.00
2022-09-07T20:44:58.409Z,100.00
2022-09-07T20:47:46.238Z,100.00
2022-09-07T20:50:34.035Z,100.00
2022-09-07T20:53:21.820Z,100.00
2022-09-07T20:56:18.704Z,100.00
2022-09-07T20:59:06.819Z,100.00
2022-09-07T21:01:54.688Z,100.00
2022-09-07T21:04:43.362Z,100.00
2022-09-07T21:07:31.229Z,100.00
2022-09-07T21:10:19.052Z,100.00
2022-09-07T21:13:09.754Z,100.00
2022-09-07T21:15:57.547Z,100.00
2022-09-07T21:18:45.336Z,100.00
2022-09-07T21:21:40.060Z,100.00
2022-09-07T21:24:30.747Z,100.00
2022-09-07T21:27:18.549Z,100.00
2022-09-07T21:30:07.314Z,100.00
2022-09-07T21:32:55.467Z,100.00
2022-09-07T21:35:45.448Z,100.00
2022-09-07T21:38:35.211Z,100.00
2022-09-07T21:41:25.021Z,100.00
2022-09-07T21:44:14.752Z,100.00
2022-09-07T21:47:02.525Z,100.00
2022-09-07T21:49:50.992Z,100.00
2022-09-07T21:52:38.935Z,100.00
2022-09-07T21:55:26.778Z,100.00
2022-09-07T21:58:15.241Z,100.00
2022-09-07T22:01:18.366Z,100.00
2022-09-07T22:04:07.031Z,100.00
2022-09-07T22:06:54.928Z,100.00
2022-09-07T22:09:42.843Z,100.00
2022-09-07T22:12:31.034Z,100.00
2022-09-07T22:15:18.764Z,100.00
2022-09-07T22:18:15.934Z,100.00
2022-09-07T22:21:10.578Z,100.00
2022-09-07T22:24:02.043Z,100.00
2022-09-07T22:26:49.874Z,100.00
2022-09-07T22:29:37.606Z,100.00
2022-09-07T22:32:25.415Z,100.00
2022-09-07T22:35:14.061Z,100.00
2022-09-07T22:38:01.953Z,100.00
2022-09-07T22:40:49.705Z,100.00
2022-09-07T22:43:38.134Z,100.00
2022-09-07T22:46:29.803Z,100.00
2022-09-07T22:49:17.765Z,100.00
2022-09-07T22:52:05.750Z,100.00
2022-09-07T22:54:53.486Z,100.00
2022-09-07T22:57:41.219Z,100.00
2022-09-07T23:00:29.883Z,100.00
2022-09-07T23:03:18.425Z,100.00
2022-09-07T23:06:06.334Z,100.00
2022-09-07T23:08:56.597Z,100.00
2022-09-07T23:11:46.538Z,100.00
2022-09-07T23:14:34.418Z,100.00
2022-09-07T23:17:22.170Z,100.00
2022-09-07T23:20:10.226Z,100.00
2022-09-07T23:22:57.965Z,100.00
2022-09-07T23:25:45.658Z,100.00
2022-09-07T23:28:33.903Z,100.00
2022-09-07T23:31:22.653Z,100.00
2022-09-07T23:34:11.161Z,100.00
2022-09-07T23:36:58.937Z,100.00
2022-09-07T23:39:47.435Z,100.00
2022-09-07T23:42:35.213Z,100.00
2022-09-07T23:45:22.980Z,100.00
2022-09-07T23:48:10.726Z,100.00
2022-09-07T23:50:58.560Z,100.00
2022-09-07T23:53:46.518Z,100.00
2022-09-07T23:56:36.703Z,100.00
2022-09-07T23:59:24.461Z,100.00
